North Kingstown, RI (02852)

12:11 AM EDT die 22o September, anno 2014 (GMT -0400)
Wickford | Change Station
CLOSE
Current Station
Personal Weather Stations
Location: North Kingstown, RI
Elevation: 110 ft
Nearby Weather Stations

Elev 110 ft 41.57 °N, 71.47 °W | Updated 9 minutes ago

Caligo
Caligo
65.4 °F
Feels Like 65.4 °F
N
0.0
Ventus Variabilis Ventus from Auster
Gusts 1.0 mph

Hodie
High -- | Low -- °F
--% Chance of Precip.
Yesterday
High -- | Low -- °F
Precip. -- in
6:33 AM 6:43 PM
Waning Crescent, 4% visible
Pressio 29.59 in
Visibilitas 3.0 milia passuum
Clouds Aequaliter Nubila 400 ft
Frigus in quo Ros apparet 65 °F
Umor 98%
Rainfall 0.00 in
Snow Depth Not available.
UV 0.0 out of 12
Pollen 1.60 out of 12
Ozone Good
PM2.5 Good
Flu Activity Not available.
SPECI KPVD 220357Z 22005KT 3SM BR OVC004 19/19 A2959 RMK AO2 CIG 002V008 T01940194

More Conditions Fewer Conditions

Pressio 29.59 in
Visibilitas 3.0 milia passuum
Clouds Aequaliter Nubila 400 ft
Frigus in quo Ros apparet 65 °F
Umor 98%
Rainfall 0.00 in
Snow Depth Not available.
UV 0.0 out of 12
Pollen 1.60 out of 12
Ozone Good
PM2.5 Good
Flu Activity Not available.
SPECI KPVD 220357Z 22005KT 3SM BR OVC004 19/19 A2959 RMK AO2 CIG 002V008 T01940194

More Conditions Fewer Conditions

10-Day Weather Forecast

Almanac

Astronomy

Sep. 22, 2014 Rise Set
Actual Time 6:33 AM EDT 6:43 PM EDT
Civil Twilight 6:05 AM EDT 7:10 PM EDT
Nautical Twilight 5:33 AM EDT 7:43 PM EDT
Astronomical Twilight 4:59 AM EDT 8:16 PM EDT
Moon 4:58 AM EDT 5:49 PM EDT
Length Of Visible Light 13h 05m
Length of Day
12h 09m
Tomorrow will be 2m 46s shorter.
Waning Crescent, 4% of the Moon is Illuminated
Hodie
Waning Crescent
Sep 24
New
Oct 1
First Quarter
Oct 8
Full
Oct 15
Last Quarter

Yesterday's Extremes

State Highs State Lows

Community

WunderPhotos

Upload Photos

1,755,383 photos uploaded!

Nearby

Air Quality

  Air Quality AQ Index Pollutant
Yesterday Good
OZONE
Yesterday Good
PM2.5
Current Good
OZONE
Current Good
PM2.5
Die Solis Good
OZONE
Die Solis Good
PM2.5
Die Lunae Good
OZONE
Die Lunae Good
PM2.5
Die Martis Good
OZONE
Die Martis Good
PM2.5

Snow Depth

Station Depth Elevation
No new snow has been reported.

Earthquake Activity

City Distance Mag. Time & Date
No recent earthquake activity has been reported nearby.
Minimum magnitude displayed is 2.5.

Coastal Water Temperatures

Locus Calor
Newport, RI 68.0 °F
Quonset Point, RI 68.0 °F
Conimicut Light, RI 69.1 °F

Nearby Weather Stations